Time,TemperatureF,DewpointF,PressureIn,WindDirection,WindDirectionDegrees,WindSpeedMPH,WindSpeedGustMPH,Humidity,HourlyPrecipIn,Conditions,Clouds,dailyrainin,SoftwareType,DateUTC
2013-02-11 00:02:00,43.0,22.0,-100.00,WNW,295,21.0,34.0,43,0.00,,,-99.99,,2013-02-11 05:02:00,
2013-02-11 00:12:00,43.0,23.0,-100.00,WNW,295,19.0,28.0,46,0.00,,,-99.99,,2013-02-11 05:12:00,
2013-02-11 00:22:00,41.0,28.0,-100.00,WNW,300,21.0,35.0,58,0.00,,,-99.99,,2013-02-11 05:22:00,
2013-02-11 00:32:00,41.0,30.0,-100.00,WNW,300,18.0,26.0,63,0.00,,,-99.99,,2013-02-11 05:32:00,
2013-02-11 00:42:00,41.0,30.0,-100.00,WNW,295,17.0,26.0,64,0.00,,,-99.99,,2013-02-11 05:42:00,
2013-02-11 00:52:00,41.0,30.0,-100.00,WNW,295,16.0,27.0,64,0.00,,,-99.99,,2013-02-11 05:52:00,
2013-02-11 01:02:00,42.0,31.0,-100.00,WNW,295,16.0,25.0,65,0.00,,,-99.99,,2013-02-11 06:02:00,
2013-02-11 01:11:00,41.0,31.0,-100.00,WNW,290,16.0,25.0,67,0.00,,,-99.99,,2013-02-11 06:11:00,
2013-02-11 01:22:00,41.0,32.0,-100.00,WNW,300,15.0,22.0,69,0.00,,,-99.99,,2013-02-11 06:22:00,
2013-02-11 01:32:00,41.0,32.0,-100.00,WNW,290,18.0,24.0,70,0.00,,,-99.99,,2013-02-11 06:32:00,
2013-02-11 01:42:00,41.0,32.0,-100.00,WNW,285,15.0,27.0,70,0.00,,,-99.99,,2013-02-11 06:42:00,
2013-02-11 01:52:00,41.0,32.0,-100.00,WNW,295,14.0,21.0,70,0.00,,,-99.99,,2013-02-11 06:52:00,
2013-02-11 02:01:00,41.0,32.0,-100.00,WNW,295,15.0,22.0,70,0.00,,,-99.99,,2013-02-11 07:01:00,
2013-02-11 02:11:00,41.0,32.0,-100.00,WNW,295,14.0,22.0,71,0.00,,,-99.99,,2013-02-11 07:11:00,
2013-02-11 02:22:00,41.0,33.0,-100.00,WNW,300,13.0,22.0,72,0.00,,,-99.99,,2013-02-11 07:22:00,
2013-02-11 02:32:00,41.0,33.0,-100.00,WNW,295,15.0,20.0,73,0.00,,,-99.99,,2013-02-11 07:32:00,
2013-02-11 02:42:00,40.0,34.0,-100.00,WNW,300,13.0,21.0,76,0.00,,,-99.99,,2013-02-11 07:42:00,
2013-02-11 02:52:00,40.0,35.0,-100.00,WNW,300,13.0,19.0,79,0.00,,,-99.99,,2013-02-11 07:52:00,
2013-02-11 03:01:00,40.0,35.0,-100.00,WNW,300,13.0,19.0,79,0.00,,,-99.99,,2013-02-11 08:01:00,
2013-02-11 03:11:00,40.0,36.0,-100.00,WNW,290,14.0,22.0,86,0.00,,,-99.99,,2013-02-11 08:11:00,
2013-02-11 03:21:00,40.0,37.0,-100.00,NW,310,13.0,21.0,90,0.00,,,-99.99,,2013-02-11 08:21:00,
2013-02-11 03:32:00,39.0,37.0,-100.00,WNW,290,11.0,17.0,92,0.00,,,-99.99,,2013-02-11 08:32:00,
2013-02-11 03:42:00,39.0,38.0,-100.00,WNW,300,14.0,17.0,95,0.00,,,-99.99,,2013-02-11 08:42:00,
2013-02-11 03:52:00,39.0,38.0,-100.00,WNW,300,14.0,20.0,96,0.00,,,-99.99,,2013-02-11 08:52:00,
2013-02-11 04:02:00,39.0,38.0,-100.00,WNW,300,13.0,20.0,97,0.00,,,-99.99,,2013-02-11 09:02:00,
2013-02-11 04:12:00,39.0,38.0,-100.00,NW,305,14.0,21.0,97,0.00,,,-99.99,,2013-02-11 09:12:00,
2013-02-11 04:21:00,39.0,38.0,-100.00,WNW,300,13.0,19.0,98,0.00,,,-99.99,,2013-02-11 09:21:00,
2013-02-11 04:32:00,39.0,39.0,-100.00,WNW,300,14.0,21.0,98,0.00,,,-99.99,,2013-02-11 09:32:00,
2013-02-11 04:42:00,39.0,39.0,-100.00,NW,310,14.0,19.0,99,0.00,,,-99.99,,2013-02-11 09:42:00,
2013-02-11 04:51:00,39.0,39.0,-100.00,NW,305,14.0,19.0,99,0.00,,,-99.99,,2013-02-11 09:51:00,
2013-02-11 05:01:00,39.0,39.0,-100.00,NW,305,13.0,18.0,99,0.00,,,-99.99,,2013-02-11 10:01:00,
2013-02-11 05:11:00,39.0,39.0,-100.00,NW,305,13.0,18.0,99,0.00,,,-99.99,,2013-02-11 10:11:00,
2013-02-11 05:21:00,39.0,39.0,-100.00,NW,320,10.0,17.0,99,0.00,,,-99.99,,2013-02-11 10:21:00,
2013-02-11 05:32:00,40.0,40.0,-100.00,NW,320,11.0,14.0,99,0.00,,,-99.99,,2013-02-11 10:32:00,
2013-02-11 05:42:00,40.0,40.0,-100.00,NW,315,12.0,17.0,99,0.00,,,-99.99,,2013-02-11 10:42:00,
2013-02-11 05:52:00,41.0,40.0,-100.00,NNW,330,11.0,16.0,99,0.00,,,-99.99,,2013-02-11 10:52:00,
2013-02-11 06:02:00,42.0,41.0,-100.00,NNW,330,13.0,19.0,99,0.00,,,-99.99,,2013-02-11 11:02:00,
2013-02-11 06:11:00,42.0,42.0,-100.00,NNW,345,13.0,21.0,99,0.00,,,-99.99,,2013-02-11 11:11:00,
2013-02-11 06:22:00,43.0,43.0,-100.00,NNW,330,13.0,17.0,99,0.00,,,-99.99,,2013-02-11 11:22:00,
2013-02-11 06:32:00,43.0,43.0,-100.00,NNW,335,14.0,17.0,99,0.00,,,-99.99,,2013-02-11 11:32:00,
2013-02-11 06:42:00,43.0,43.0,-100.00,NNW,330,12.0,19.0,99,0.00,,,-99.99,,2013-02-11 11:42:00,
2013-02-11 06:52:00,44.0,44.0,-100.00,NNW,335,13.0,19.0,99,0.00,,,-99.99,,2013-02-11 11:52:00,
2013-02-11 07:03:00,44.0,44.0,-100.00,NNW,335,16.0,20.0,99,0.00,,,-99.99,,2013-02-11 12:03:00,
2013-02-11 07:12:00,44.0,44.0,-100.00,NNW,335,12.0,19.0,99,0.00,,,-99.99,,2013-02-11 12:12:00,
2013-02-11 07:22:00,44.0,44.0,-100.00,NNW,335,12.0,19.0,99,0.00,,,-99.99,,2013-02-11 12:22:00,
2013-02-11 07:32:00,44.0,44.0,-100.00,NNW,335,12.0,17.0,99,0.00,,,-99.99,,2013-02-11 12:32:00,
2013-02-11 07:42:00,44.0,44.0,-100.00,NNW,335,12.0,17.0,99,0.00,,,-99.99,,2013-02-11 12:42:00,
2013-02-11 07:52:00,44.0,44.0,-100.00,NNW,330,14.0,17.0,98,0.00,,,-99.99,,2013-02-11 12:52:00,
2013-02-11 08:02:00,45.0,44.0,-100.00,NNW,335,13.0,17.0,98,0.00,,,-99.99,,2013-02-11 13:02:00,
2013-02-11 08:12:00,45.0,44.0,-100.00,NW,325,14.0,20.0,98,0.00,,,-99.99,,2013-02-11 13:12:00,
2013-02-11 08:22:00,45.0,44.0,-100.00,NNW,335,14.0,19.0,97,0.00,,,-99.99,,2013-02-11 13:22:00,
2013-02-11 08:33:00,45.0,44.0,-100.00,NNW,330,14.0,19.0,96,0.00,,,-99.99,,2013-02-11 13:33:00,
2013-02-11 08:42:00,45.0,44.0,-100.00,NNW,330,13.0,21.0,95,0.00,,,-99.99,,2013-02-11 13:42:00,
2013-02-11 08:52:00,46.0,44.0,-100.00,NNW,340,11.0,18.0,93,0.00,,,-99.99,,2013-02-11 13:52:00,
2013-02-11 09:02:00,47.0,44.0,-100.00,NNW,345,14.0,18.0,90,0.00,,,-99.99,,2013-02-11 14:02:00,
2013-02-11 09:11:00,47.0,44.0,-100.00,NNW,335,12.0,24.0,88,0.00,,,-99.99,,2013-02-11 14:11:00,
2013-02-11 09:22:00,47.0,43.0,-100.00,North,355,12.0,22.0,86,0.00,,,-99.99,,2013-02-11 14:22:00,
2013-02-11 09:33:00,48.0,43.0,-100.00,North,350,11.0,18.0,83,0.00,,,-99.99,,2013-02-11 14:33:00,
2013-02-11 09:42:00,48.0,43.0,-100.00,North,355,16.0,24.0,80,0.00,,,-99.99,,2013-02-11 14:42:00,
2013-02-11 09:52:00,48.0,42.0,-100.00,North,350,12.0,25.0,77,0.00,,,-99.99,,2013-02-11 14:52:00,
2013-02-11 10:02:00,49.0,42.0,-100.00,NNW,345,12.0,26.0,75,0.00,,,-99.99,,2013-02-11 15:02:00,
2013-02-11 10:11:00,50.0,40.0,-100.00,North,10,14.0,31.0,69,0.00,,,-99.99,,2013-02-11 15:11:00,
2013-02-11 10:22:00,50.0,39.0,-100.00,North,5,18.0,32.0,65,0.00,,,-99.99,,2013-02-11 15:22:00,
2013-02-11 10:32:00,50.0,39.0,-100.00,North,355,12.0,20.0,64,0.00,,,-99.99,,2013-02-11 15:32:00,
2013-02-11 10:42:00,51.0,38.0,-100.00,North,355,17.0,28.0,61,0.00,,,-99.99,,2013-02-11 15:42:00,
2013-02-11 10:52:00,51.0,37.0,-100.00,North,355,17.0,26.0,57,0.00,,,-99.99,,2013-02-11 15:52:00,
2013-02-11 11:02:00,52.0,34.0,-100.00,North,0,17.0,26.0,50,0.00,,,-99.99,,2013-02-11 16:02:00,
2013-02-11 11:12:00,50.0,33.0,-100.00,NNE,30,17.0,26.0,52,0.00,,,-99.99,,2013-02-11 16:12:00,
2013-02-11 11:22:00,46.0,35.0,-100.00,NE,35,13.0,19.0,65,0.00,,,-99.99,,2013-02-11 16:22:00,
2013-02-11 11:32:00,44.0,35.0,-100.00,NNE,30,15.0,28.0,69,0.00,,,-99.99,,2013-02-11 16:32:00,
2013-02-11 11:42:00,44.0,35.0,-100.00,NNE,30,15.0,23.0,70,0.00,,,-99.99,,2013-02-11 16:42:00,
2013-02-11 11:52:00,43.0,35.0,-100.00,NE,40,12.0,20.0,72,0.00,,,-99.99,,2013-02-11 16:52:00,
2013-02-11 12:02:00,44.0,35.0,-100.00,NE,55,12.0,21.0,71,0.00,,,-99.99,,2013-02-11 17:02:00,
2013-02-11 12:11:00,44.0,35.0,-100.00,NNE,30,14.0,24.0,70,0.00,,,-99.99,,2013-02-11 17:11:00,
2013-02-11 12:22:00,43.0,34.0,-100.00,NE,45,11.0,21.0,70,0.00,,,-99.99,,2013-02-11 17:22:00,
2013-02-11 12:32:00,43.0,34.0,-100.00,NNE,25,14.0,22.0,70,0.00,,,-99.99,,2013-02-11 17:32:00,
2013-02-11 12:42:00,43.0,34.0,-100.00,NNE,20,13.0,26.0,68,0.00,,,-99.99,,2013-02-11 17:42:00,
2013-02-11 12:52:00,44.0,33.0,-100.00,NNE,15,13.0,29.0,65,0.00,,,-99.99,,2013-02-11 17:52:00,
2013-02-11 13:02:00,44.0,31.0,-100.00,NNE,20,21.0,34.0,62,0.00,,,-99.99,,2013-02-11 18:02:00,
2013-02-11 13:11:00,43.0,30.0,-100.00,NNE,15,22.0,33.0,59,0.00,,,-99.99,,2013-02-11 18:11:00,
2013-02-11 13:22:00,41.0,30.0,-100.00,NE,35,12.0,25.0,65,0.00,,,-99.99,,2013-02-11 18:22:00,
2013-02-11 13:32:00,39.0,29.0,-100.00,NNE,30,13.0,25.0,67,0.00,,,-99.99,,2013-02-11 18:32:00,
2013-02-11 13:42:00,39.0,29.0,-100.00,NNE,20,12.0,19.0,67,0.00,,,-99.99,,2013-02-11 18:42:00,
2013-02-11 13:53:00,39.0,29.0,-100.00,NNE,25,15.0,31.0,66,0.00,,,-99.99,,2013-02-11 18:53:00,
2013-02-11 14:02:00,39.0,29.0,-100.00,North,10,16.0,27.0,66,0.00,,,-99.99,,2013-02-11 19:02:00,
2013-02-11 14:11:00,39.0,29.0,-100.00,North,10,16.0,29.0,65,0.00,,,-99.99,,2013-02-11 19:11:00,
2013-02-11 14:22:00,40.0,28.0,-100.00,North,10,17.0,34.0,63,0.00,,,-99.99,,2013-02-11 19:22:00,
2013-02-11 14:32:00,40.0,28.0,-100.00,NNE,15,12.0,29.0,62,0.00,,,-99.99,,2013-02-11 19:32:00,
2013-02-11 14:42:00,40.0,27.0,-100.00,North,10,18.0,30.0,59,0.00,,,-99.99,,2013-02-11 19:42:00,
2013-02-11 14:51:00,40.0,26.0,-100.00,NNE,20,20.0,43.0,57,0.00,,,-99.99,,2013-02-11 19:51:00,
2013-02-11 15:02:00,39.0,26.0,-100.00,NNE,20,22.0,34.0,57,0.00,,,-99.99,,2013-02-11 20:02:00,
2013-02-11 15:11:00,39.0,26.0,-100.00,NNE,15,24.0,35.0,58,0.00,,,-99.99,,2013-02-11 20:11:00,
2013-02-11 15:21:00,39.0,26.0,-100.00,NNE,15,19.0,32.0,59,0.00,,,-99.99,,2013-02-11 20:21:00,
2013-02-11 15:32:00,38.0,26.0,-100.00,NNE,25,19.0,31.0,60,0.00,,,-99.99,,2013-02-11 20:32:00,
2013-02-11 15:42:00,38.0,27.0,-100.00,NNE,25,14.0,20.0,64,0.00,,,-99.99,,2013-02-11 20:42:00,
2013-02-11 15:52:00,37.0,27.0,-100.00,NNE,30,13.0,25.0,67,0.00,,,-99.99,,2013-02-11 20:52:00,
2013-02-11 16:02:00,37.0,27.0,-100.00,NE,40,13.0,24.0,67,0.00,,,-99.99,,2013-02-11 21:02:00,
2013-02-11 16:12:00,36.0,27.0,-100.00,NNE,30,18.0,27.0,69,0.55,,,-99.99,,2013-02-11 21:12:00,
2013-02-11 16:22:00,35.0,27.0,-100.00,North,10,16.0,29.0,71,0.00,,,-99.99,,2013-02-11 21:22:00,
2013-02-11 16:32:00,36.0,27.0,-100.00,North,10,13.0,24.0,68,0.00,,,-99.99,,2013-02-11 21:32:00,
2013-02-11 16:42:00,36.0,26.0,-100.00,NNE,15,11.0,26.0,66,0.00,,,-99.99,,2013-02-11 21:42:00,
2013-02-11 16:52:00,36.0,25.0,-100.00,NNE,20,20.0,26.0,64,0.00,,,-99.99,,2013-02-11 21:52:00,
2013-02-11 17:02:00,36.0,26.0,-100.00,NNE,20,12.0,25.0,64,0.00,,,-99.99,,2013-02-11 22:02:00,
2013-02-11 17:12:00,36.0,25.0,-100.00,NNE,15,20.0,29.0,64,0.00,,,-99.99,,2013-02-11 22:12:00,
2013-02-11 17:22:00,36.0,25.0,-100.00,North,10,17.0,34.0,64,0.00,,,-99.99,,2013-02-11 22:22:00,
2013-02-11 17:32:00,36.0,25.0,-100.00,NNE,20,14.0,32.0,64,0.00,,,-99.99,,2013-02-11 22:32:00,
2013-02-11 17:42:00,36.0,25.0,-100.00,NNE,15,12.0,22.0,65,0.00,,,-99.99,,2013-02-11 22:42:00,
2013-02-11 17:52:00,35.0,25.0,-100.00,North,10,14.0,23.0,65,0.00,,,-99.99,,2013-02-11 22:52:00,
2013-02-11 18:02:00,35.0,24.0,-100.00,NNE,25,14.0,35.0,62,0.00,,,-99.99,,2013-02-11 23:02:00,
2013-02-11 18:11:00,35.0,24.0,-100.00,NNE,20,16.0,30.0,61,0.00,,,-99.99,,2013-02-11 23:11:00,
2013-02-11 18:22:00,35.0,24.0,-100.00,NNE,20,12.0,28.0,62,0.00,,,-99.99,,2013-02-11 23:22:00,
2013-02-11 18:32:00,35.0,24.0,-100.00,NNE,20,17.0,28.0,62,0.00,,,-99.99,,2013-02-11 23:32:00,
2013-02-11 18:42:00,35.0,24.0,-100.00,NNE,25,12.0,25.0,62,0.00,,,-99.99,,2013-02-11 23:42:00,
2013-02-11 18:52:00,35.0,24.0,-100.00,NNE,15,17.0,29.0,62,0.00,,,-99.99,,2013-02-11 23:52:00,
2013-02-11 19:02:00,35.0,24.0,-100.00,NNE,20,19.0,30.0,61,0.00,,,-99.99,,2013-02-12 00:02:00,
2013-02-11 19:12:00,35.0,24.0,-100.00,NNE,20,16.0,25.0,62,0.00,,,-99.99,,2013-02-12 00:12:00,
2013-02-11 19:22:00,35.0,24.0,-100.00,NNE,20,14.0,23.0,62,0.00,,,-99.99,,2013-02-12 00:22:00,
2013-02-11 19:32:00,35.0,24.0,-100.00,NNE,15,17.0,28.0,62,0.00,,,-99.99,,2013-02-12 00:32:00,
2013-02-11 19:42:00,35.0,23.0,-100.00,North,0,13.0,25.0,62,0.00,,,-99.99,,2013-02-12 00:42:00,
2013-02-11 19:52:00,35.0,24.0,-100.00,NNE,25,16.0,24.0,62,0.00,,,-99.99,,2013-02-12 00:52:00,
2013-02-11 20:02:00,35.0,24.0,-100.00,NNE,15,17.0,22.0,62,0.00,,,-99.99,,2013-02-12 01:02:00,
2013-02-11 20:11:00,35.0,24.0,-100.00,North,0,7.0,22.0,63,0.00,,,-99.99,,2013-02-12 01:11:00,
2013-02-11 20:22:00,35.0,24.0,-100.00,NNE,15,14.0,27.0,63,0.00,,,-99.99,,2013-02-12 01:22:00,
2013-02-11 20:32:00,35.0,24.0,-100.00,NNE,30,16.0,26.0,63,0.00,,,-99.99,,2013-02-12 01:32:00,
2013-02-11 20:42:00,35.0,24.0,-100.00,NNE,20,9.0,27.0,64,0.00,,,-99.99,,2013-02-12 01:42:00,
2013-02-11 20:52:00,35.0,24.0,-100.00,NE,40,12.0,22.0,65,0.00,,,-99.99,,2013-02-12 01:52:00,
2013-02-11 21:02:00,35.0,24.0,-100.00,NNE,25,14.0,25.0,65,0.00,,,-99.99,,2013-02-12 02:02:00,
2013-02-11 21:12:00,35.0,24.0,-100.00,NNE,25,17.0,26.0,65,0.00,,,-99.99,,2013-02-12 02:12:00,
2013-02-11 21:22:00,34.0,25.0,-100.00,NNE,20,12.0,29.0,67,0.00,,,-99.99,,2013-02-12 02:22:00,
2013-02-11 21:32:00,34.0,25.0,-100.00,NNE,15,15.0,23.0,67,0.00,,,-99.99,,2013-02-12 02:32:00,
2013-02-11 21:42:00,34.0,25.0,-100.00,NNE,15,14.0,34.0,67,0.00,,,-99.99,,2013-02-12 02:42:00,
2013-02-11 21:52:00,34.0,24.0,-100.00,NNE,25,17.0,28.0,67,0.00,,,-99.99,,2013-02-12 02:52:00,
2013-02-11 22:02:00,34.0,25.0,-100.00,NNE,20,12.0,28.0,68,0.00,,,-99.99,,2013-02-12 03:02:00,
2013-02-11 22:11:00,34.0,24.0,-100.00,NNE,15,16.0,32.0,68,0.00,,,-99.99,,2013-02-12 03:11:00,
2013-02-11 22:21:00,34.0,24.0,-100.00,NNE,25,23.0,33.0,67,0.00,,,-99.99,,2013-02-12 03:21:00,
2013-02-11 22:32:00,33.0,24.0,-100.00,NNE,30,17.0,29.0,68,0.00,,,-99.99,,2013-02-12 03:32:00,
2013-02-11 22:42:00,33.0,24.0,-100.00,NNE,25,17.0,33.0,69,0.00,,,-99.99,,2013-02-12 03:42:00,
2013-02-11 22:51:00,33.0,24.0,-100.00,NE,35,16.0,27.0,69,0.00,,,-99.99,,2013-02-12 03:51:00,
2013-02-11 23:01:00,33.0,24.0,-100.00,NNE,20,17.0,32.0,69,0.00,,,-99.99,,2013-02-12 04:01:00,
2013-02-11 23:11:00,33.0,24.0,-100.00,NNE,25,16.0,27.0,69,0.00,,,-99.99,,2013-02-12 04:11:00,
2013-02-11 23:21:00,33.0,24.0,-100.00,NNE,30,16.0,27.0,69,0.00,,,-99.99,,2013-02-12 04:21:00,
2013-02-11 23:32:00,33.0,24.0,-100.00,NNE,30,17.0,35.0,68,0.00,,,-99.99,,2013-02-12 04:32:00,
2013-02-11 23:42:00,33.0,24.0,-100.00,NE,35,19.0,37.0,68,0.00,,,-99.99,,2013-02-12 04:42:00,
2013-02-11 23:51:00,33.0,24.0,-100.00,NNE,25,17.0,25.0,68,0.00,,,-99.99,,2013-02-12 04:51:00,